createdAt,value
2019-02-09T00:00:37.091Z,91.60
2019-02-09T00:03:09.008Z,91.90
2019-02-09T00:05:38.481Z,91.90
2019-02-09T00:08:29.015Z,91.90
2019-02-09T00:10:58.648Z,92.00
2019-02-09T00:13:28.011Z,92.10
2019-02-09T00:15:57.374Z,92.10
2019-02-09T00:18:26.738Z,92.10
2019-02-09T00:20:56.177Z,92.20
2019-02-09T00:23:25.545Z,92.20
2019-02-09T00:25:54.936Z,92.10
2019-02-09T00:28:25.525Z,92.30
2019-02-09T00:30:55.033Z,92.30
2019-02-09T00:33:24.651Z,92.30
2019-02-09T00:35:54.021Z,92.40
2019-02-09T00:38:24.525Z,92.60
2019-02-09T00:40:53.963Z,92.60
2019-02-09T00:43:23.325Z,92.70
2019-02-09T00:45:52.982Z,92.70
2019-02-09T00:48:23.883Z,92.90
2019-02-09T00:50:53.254Z,92.90
2019-02-09T00:53:22.689Z,92.90
2019-02-09T00:56:11.731Z,93.00
2019-02-09T00:58:41.095Z,92.90
2019-02-09T01:01:10.470Z,92.90
2019-02-09T01:03:40.791Z,92.80
2019-02-09T01:06:11.807Z,92.80
2019-02-09T01:08:41.166Z,92.80
2019-02-09T01:11:10.603Z,92.80
2019-02-09T01:13:39.974Z,93.00
2019-02-09T01:16:09.423Z,92.70
2019-02-09T01:18:41.718Z,92.80
2019-02-09T01:21:11.178Z,92.60
2019-02-09T01:23:40.551Z,92.70
2019-02-09T01:26:10.333Z,92.70
2019-02-09T01:28:39.954Z,92.70
2019-02-09T01:31:09.347Z,92.70
2019-02-09T01:33:39.032Z,92.70
2019-02-09T01:36:08.412Z,92.90
2019-02-09T01:38:37.786Z,92.90
2019-02-09T01:41:07.475Z,93.00
2019-02-09T01:43:36.838Z,93.20
2019-02-09T01:46:06.295Z,93.40
2019-02-09T01:48:35.658Z,93.50
2019-02-09T01:51:05.202Z,93.50
2019-02-09T01:53:34.565Z,93.50
2019-02-09T01:56:04.209Z,93.80
2019-02-09T01:58:33.899Z,93.80
2019-02-09T02:01:03.343Z,93.80
2019-02-09T02:03:32.749Z,93.90
2019-02-09T02:06:02.113Z,93.80
2019-02-09T02:08:31.477Z,93.90
2019-02-09T02:11:00.855Z,94.00
2019-02-09T02:13:31.067Z,94.00
2019-02-09T02:16:02.404Z,94.00
2019-02-09T02:18:31.825Z,94.10
2019-02-09T02:21:01.400Z,94.40
2019-02-09T02:23:35.940Z,94.30
2019-02-09T02:26:02.621Z,94.20
2019-02-09T02:28:33.644Z,94.20
2019-02-09T02:31:12.159Z,94.20
2019-02-09T02:36:56.682Z,94.00
2019-02-09T02:39:39.707Z,93.80
2019-02-09T02:58:31.037Z,93.00
2019-02-09T03:01:18.503Z,92.90
2019-02-09T03:03:55.291Z,92.90
2019-02-09T03:06:33.365Z,92.80
2019-02-09T03:09:13.499Z,92.90
2019-02-09T03:11:44.554Z,93.00
2019-02-09T03:14:23.839Z,93.00
2019-02-09T03:16:56.407Z,93.00
2019-02-09T03:19:25.960Z,93.10
2019-02-09T03:21:58.276Z,93.10
2019-02-09T03:24:29.293Z,93.10
2019-02-09T03:27:01.890Z,93.00
2019-02-09T03:29:32.251Z,93.00
2019-02-09T03:32:01.649Z,93.00
2019-02-09T03:34:31.189Z,93.00
2019-02-09T03:37:00.531Z,93.20
2019-02-09T03:39:32.263Z,93.20
2019-02-09T03:42:01.655Z,93.30
2019-02-09T03:45:17.480Z,93.20
2019-02-09T03:48:15.461Z,93.20
2019-02-09T03:51:18.411Z,93.20
2019-02-09T03:53:36.426Z,93.10
2019-02-09T03:56:06.136Z,93.20
2019-02-09T03:58:43.696Z,93.20
2019-02-09T04:01:13.095Z,93.20
2019-02-09T04:03:42.656Z,93.10
2019-02-09T04:06:12.018Z,93.00
2019-02-09T04:08:41.414Z,92.90
2019-02-09T04:11:10.787Z,92.90
2019-02-09T04:13:41.107Z,92.80
2019-02-09T04:16:11.186Z,92.70
2019-02-09T04:18:40.596Z,92.70
2019-02-09T04:21:09.967Z,92.80
2019-02-09T04:23:39.383Z,92.80
2019-02-09T04:26:08.787Z,92.70
2019-02-09T04:28:38.420Z,92.80
2019-02-09T04:31:08.080Z,92.80
2019-02-09T04:33:37.457Z,92.80
2019-02-09T04:36:06.869Z,92.70
2019-02-09T04:38:39.258Z,92.70
2019-02-09T04:41:08.890Z,92.60
2019-02-09T04:43:38.549Z,92.60
2019-02-09T04:46:07.995Z,92.60
2019-02-09T04:48:38.251Z,92.50
2019-02-09T04:51:10.863Z,92.50
2019-02-09T04:53:57.274Z,92.50
2019-02-09T04:56:39.179Z,92.50
2019-02-09T04:59:22.920Z,92.40
2019-02-09T05:02:08.128Z,92.40
2019-02-09T05:04:57.228Z,92.40
2019-02-09T05:07:37.858Z,92.50
2019-02-09T05:10:36.974Z,92.50
2019-02-09T05:13:09.571Z,92.60
2019-02-09T05:15:46.313Z,92.60
2019-02-09T05:18:20.206Z,92.60
2019-02-09T05:20:52.888Z,92.70
2019-02-09T05:23:23.902Z,92.80
2019-02-09T05:25:54.969Z,92.80
2019-02-09T05:28:48.883Z,93.00
2019-02-09T05:31:23.075Z,93.10
2019-02-09T05:33:49.805Z,93.20
2019-02-09T05:36:19.214Z,93.10
2019-02-09T05:38:49.486Z,93.20
2019-02-09T05:41:19.104Z,93.20
2019-02-09T05:43:48.490Z,93.20
2019-02-09T05:46:17.865Z,93.10
2019-02-09T05:48:47.244Z,93.00
2019-02-09T05:51:16.619Z,93.00
2019-02-09T05:53:46.040Z,93.00
2019-02-09T05:56:15.432Z,92.80
2019-02-09T05:58:44.802Z,92.70
2019-02-09T06:01:14.229Z,92.50
2019-02-09T06:03:46.757Z,92.60
2019-02-09T06:06:16.362Z,92.30
2019-02-09T06:08:45.761Z,92.20
2019-02-09T06:11:31.758Z,92.10
2019-02-09T06:14:11.962Z,92.10
2019-02-09T06:16:42.935Z,91.90
2019-02-09T06:19:12.363Z,91.90
2019-02-09T06:21:44.427Z,91.70
2019-02-09T06:24:13.792Z,91.70
2019-02-09T06:26:43.148Z,91.60
2019-02-09T06:29:15.515Z,91.60
2019-02-09T06:31:45.145Z,91.30
2019-02-09T06:34:14.521Z,91.30
2019-02-09T06:36:45.464Z,91.20
2019-02-09T06:39:14.917Z,91.30
2019-02-09T06:41:44.307Z,91.20
2019-02-09T06:44:13.677Z,91.10
2019-02-09T06:46:46.164Z,91.10
2019-02-09T06:49:15.545Z,91.00
2019-02-09T06:51:44.936Z,90.90
2019-02-09T06:54:14.358Z,90.80
2019-02-09T06:56:43.766Z,90.80
2019-02-09T06:59:17.396Z,90.70
2019-02-09T07:01:48.665Z,90.60
2019-02-09T07:04:18.082Z,90.60
2019-02-09T07:06:47.461Z,90.50
2019-02-09T07:09:16.860Z,90.50
2019-02-09T07:11:49.332Z,90.60
2019-02-09T07:14:23.230Z,90.60
2019-02-09T07:16:49.858Z,90.60
2019-02-09T07:19:19.309Z,90.60
2019-02-09T07:21:48.698Z,90.30
2019-02-09T07:24:18.063Z,90.10
2019-02-09T07:26:47.659Z,90.10
2019-02-09T07:29:17.513Z,90.00
2019-02-09T07:31:46.957Z,89.40
2019-02-09T07:34:16.353Z,89.20
2019-02-09T07:36:46.751Z,89.20
2019-02-09T07:39:16.152Z,88.90
2019-02-09T07:41:47.346Z,88.80
2019-02-09T07:44:16.743Z,88.30
2019-02-09T07:46:46.380Z,88.70
2019-02-09T07:49:54.708Z,88.60
2019-02-09T07:52:24.092Z,88.70
2019-02-09T07:54:53.478Z,88.60
2019-02-09T07:57:22.991Z,88.50
2019-02-09T07:59:52.387Z,88.50
2019-02-09T08:02:22.898Z,88.10
2019-02-09T08:04:52.289Z,88.20
2019-02-09T08:07:21.730Z,88.30
2019-02-09T08:10:01.687Z,88.10
2019-02-09T08:12:30.280Z,87.90
2019-02-09T08:14:59.673Z,88.30
2019-02-09T08:17:29.268Z,87.90
2019-02-09T08:19:59.102Z,87.80
2019-02-09T08:22:28.805Z,87.40
2019-02-09T08:24:58.521Z,88.30
2019-02-09T08:27:28.563Z,88.30
2019-02-09T08:29:59.603Z,87.20
2019-02-09T08:32:29.268Z,87.50
2019-02-09T08:35:01.277Z,87.30
2019-02-09T08:37:30.945Z,87.10
2019-02-09T08:40:01.072Z,87.30
2019-02-09T08:42:31.021Z,87.60
2019-02-09T08:45:00.693Z,87.00
2019-02-09T08:47:30.229Z,86.60
2019-02-09T08:49:59.825Z,87.10
2019-02-09T08:52:29.355Z,86.40
2019-02-09T08:54:59.598Z,86.80
2019-02-09T08:57:32.647Z,86.70
2019-02-09T09:00:02.384Z,86.60
2019-02-09T09:02:32.167Z,86.20
2019-02-09T09:05:09.378Z,86.30
2019-02-09T09:07:33.538Z,85.80
2019-02-09T09:10:05.135Z,84.50
2019-02-09T09:12:34.839Z,84.90
2019-02-09T09:15:24.575Z,84.50
2019-02-09T09:17:54.286Z,84.70
2019-02-09T09:20:36.586Z,85.00
2019-02-09T09:23:06.572Z,85.60
2019-02-09T09:25:36.091Z,85.90
2019-02-09T09:28:06.451Z,85.50
2019-02-09T09:30:36.587Z,85.80
2019-02-09T09:33:06.496Z,86.10
2019-02-09T09:35:37.367Z,86.20
2019-02-09T09:38:06.954Z,85.90
2019-02-09T09:40:43.134Z,85.80
2019-02-09T09:43:16.111Z,85.30
2019-02-09T09:45:46.570Z,84.60
2019-02-09T09:48:23.322Z,84.40
2019-02-09T09:50:52.903Z,84.90
2019-02-09T09:53:22.581Z,84.10
2019-02-09T09:55:52.483Z,83.80
2019-02-09T09:58:22.172Z,84.70
2019-02-09T10:00:51.783Z,84.60
2019-02-09T10:03:21.590Z,85.20
2019-02-09T10:05:51.515Z,85.90
2019-02-09T10:08:21.827Z,85.80
2019-02-09T10:10:52.652Z,86.00
2019-02-09T10:13:24.677Z,86.10
2019-02-09T10:15:54.285Z,85.90
2019-02-09T10:18:23.909Z,85.40
2019-02-09T10:20:53.813Z,86.10
2019-02-09T10:23:23.449Z,85.60
2019-02-09T10:25:53.263Z,85.20
2019-02-09T10:28:22.976Z,86.00
2019-02-09T10:30:54.431Z,84.60
2019-02-09T10:33:24.324Z,84.60
2019-02-09T10:35:54.404Z,84.50
2019-02-09T10:38:24.962Z,84.60
2019-02-09T10:40:55.245Z,83.80
2019-02-09T10:43:25.122Z,84.10
2019-02-09T10:45:54.624Z,83.20
2019-02-09T10:48:24.049Z,83.20
2019-02-09T10:50:54.131Z,83.40
2019-02-09T10:53:23.967Z,83.80
2019-02-09T10:55:59.338Z,83.40
2019-02-09T10:58:27.864Z,82.70
2019-02-09T11:01:07.459Z,81.30
2019-02-09T11:03:49.543Z,81.50
2019-02-09T11:06:24.177Z,81.50
2019-02-09T11:08:55.329Z,80.90
2019-02-09T11:11:24.760Z,80.70
2019-02-09T11:14:05.698Z,81.50
2019-02-09T11:16:36.211Z,81.30
2019-02-09T11:19:06.007Z,81.00
2019-02-09T11:21:37.049Z,81.00
2019-02-09T11:24:09.806Z,81.30
2019-02-09T11:26:39.453Z,81.40
2019-02-09T11:29:08.815Z,80.90
2019-02-09T11:31:39.308Z,81.20
2019-02-09T11:34:08.811Z,80.60
2019-02-09T11:36:38.343Z,81.30
2019-02-09T11:39:08.417Z,81.40
2019-02-09T11:41:38.187Z,80.90
2019-02-09T11:44:08.649Z,80.40
2019-02-09T11:46:38.059Z,81.20
2019-02-09T11:49:07.409Z,81.60
2019-02-09T11:51:38.020Z,81.20
2019-02-09T11:54:07.391Z,81.10
2019-02-09T11:56:37.192Z,81.50
2019-02-09T11:59:07.134Z,80.60
2019-02-09T12:01:36.877Z,80.30
2019-02-09T12:04:10.646Z,80.00
2019-02-09T12:06:41.919Z,80.10
2019-02-09T12:09:13.335Z,80.60
2019-02-09T12:11:51.362Z,80.50
2019-02-09T12:14:22.005Z,81.30
2019-02-09T12:16:51.569Z,82.70
2019-02-09T12:19:23.813Z,83.70
2019-02-09T12:21:54.978Z,84.50
2019-02-09T12:24:24.362Z,84.80
2019-02-09T12:26:53.747Z,83.60
2019-02-09T12:29:23.172Z,83.60
2019-02-09T12:31:53.694Z,83.50
2019-02-09T12:34:23.100Z,83.20
2019-02-09T12:36:52.518Z,81.80
2019-02-09T12:39:21.894Z,83.30
2019-02-09T12:41:51.354Z,82.40
2019-02-09T12:44:20.713Z,82.80
2019-02-09T12:46:50.106Z,82.80
2019-02-09T12:49:19.462Z,81.10
2019-02-09T12:51:48.859Z,80.90
2019-02-09T12:54:18.237Z,81.60
2019-02-09T12:56:47.627Z,81.20
2019-02-09T12:59:18.191Z,80.90
2019-02-09T13:01:47.690Z,78.70
2019-02-09T13:04:17.057Z,80.00
2019-02-09T13:06:47.479Z,77.90
2019-02-09T13:09:16.850Z,78.90
2019-02-09T13:11:46.554Z,78.50
2019-02-09T13:14:15.942Z,78.40
2019-02-09T13:16:45.697Z,78.40
2019-02-09T13:19:15.333Z,79.20
2019-02-09T13:21:44.745Z,78.20
2019-02-09T13:24:14.379Z,76.80
2019-02-09T13:26:43.807Z,79.30
2019-02-09T13:29:13.180Z,78.70
2019-02-09T13:31:42.568Z,79.20
2019-02-09T13:34:11.956Z,79.50
2019-02-09T13:36:42.294Z,80.40
2019-02-09T13:39:11.651Z,79.30
2019-02-09T13:41:41.037Z,79.70
2019-02-09T13:44:10.465Z,79.30
2019-02-09T13:46:40.055Z,79.60
2019-02-09T13:49:09.425Z,79.50
2019-02-09T13:51:38.870Z,80.30
2019-02-09T13:54:08.248Z,80.10
2019-02-09T13:56:37.627Z,80.70
2019-02-09T13:59:07.474Z,80.10
2019-02-09T14:01:37.778Z,80.30
2019-02-09T14:04:07.154Z,80.10
2019-02-09T14:06:36.531Z,80.70
2019-02-09T14:09:08.435Z,79.00
2019-02-09T14:11:37.886Z,79.80
2019-02-09T14:14:07.402Z,80.70
2019-02-09T14:16:38.837Z,80.90
2019-02-09T14:19:07.996Z,80.90
2019-02-09T14:21:37.412Z,82.90
2019-02-09T14:24:07.745Z,84.10
2019-02-09T14:26:39.057Z,84.00
2019-02-09T14:29:12.051Z,84.30
2019-02-09T14:31:41.657Z,84.60
2019-02-09T14:34:12.715Z,84.40
2019-02-09T14:36:43.265Z,84.70
2019-02-09T14:39:15.982Z,84.50
2019-02-09T14:41:50.665Z,84.30
2019-02-09T14:44:20.850Z,84.60
2019-02-09T14:46:53.039Z,84.10
2019-02-09T14:49:22.383Z,84.30
2019-02-09T14:51:53.667Z,84.50
2019-02-09T14:54:25.585Z,84.10
2019-02-09T14:56:57.186Z,84.20
2019-02-09T14:59:27.598Z,84.10
2019-02-09T15:01:58.823Z,83.80
2019-02-09T15:04:30.070Z,83.70
2019-02-09T15:07:01.607Z,83.20
2019-02-09T15:09:33.648Z,82.80
2019-02-09T15:12:04.634Z,82.90
2019-02-09T15:14:38.434Z,83.20
2019-02-09T15:17:12.654Z,82.00
2019-02-09T15:19:45.040Z,82.60
2019-02-09T15:22:19.268Z,82.10
2019-02-09T15:24:54.312Z,82.10
2019-02-09T15:27:27.564Z,81.70
2019-02-09T15:30:00.708Z,81.20
2019-02-09T15:32:33.220Z,80.80
2019-02-09T15:35:11.224Z,80.70
2019-02-09T15:37:43.513Z,80.40
2019-02-09T15:40:21.755Z,80.60
2019-02-09T15:42:52.726Z,80.00
2019-02-09T15:45:27.077Z,79.10
2019-02-09T15:47:58.021Z,80.00
2019-02-09T15:50:27.704Z,80.00
2019-02-09T15:53:00.540Z,79.90
2019-02-09T15:55:38.539Z,80.00
2019-02-09T15:58:08.386Z,80.70
2019-02-09T16:00:37.979Z,80.10
2019-02-09T16:03:09.259Z,80.60
2019-02-09T16:05:38.791Z,81.10
2019-02-09T16:08:10.721Z,80.60
2019-02-09T16:11:04.342Z,80.90
2019-02-09T16:13:34.921Z,80.90
2019-02-09T16:16:08.355Z,80.70
2019-02-09T16:18:42.133Z,81.00
2019-02-09T16:21:11.495Z,80.70
2019-02-09T16:23:44.035Z,81.00
2019-02-09T16:26:21.984Z,80.10
2019-02-09T16:28:53.837Z,79.90
2019-02-09T16:31:33.595Z,79.90
2019-02-09T16:34:05.162Z,79.60
2019-02-09T16:36:35.240Z,79.40
2019-02-09T16:39:08.114Z,79.50
2019-02-09T16:41:39.164Z,79.70
2019-02-09T16:44:13.947Z,79.70
2019-02-09T16:46:44.994Z,79.40
2019-02-09T16:49:14.456Z,80.00
2019-02-09T16:51:46.242Z,79.90
2019-02-09T16:54:15.833Z,80.30
2019-02-09T16:56:51.262Z,80.30
2019-02-09T16:59:22.646Z,80.30
2019-02-09T17:01:54.441Z,80.60
2019-02-09T17:04:23.870Z,80.60
2019-02-09T17:06:53.323Z,80.80
2019-02-09T17:09:22.866Z,81.00
2019-02-09T17:11:53.368Z,81.20
2019-02-09T17:14:23.069Z,81.70
2019-02-09T17:16:54.030Z,81.70
2019-02-09T17:19:25.261Z,82.10
2019-02-09T17:21:55.168Z,81.80
2019-02-09T17:24:24.825Z,81.80
2019-02-09T17:26:54.345Z,82.10
2019-02-09T17:29:23.830Z,81.80
2019-02-09T17:31:53.210Z,81.90
2019-02-09T17:34:22.601Z,81.80
2019-02-09T17:36:52.009Z,82.20
2019-02-09T17:39:21.726Z,81.70
2019-02-09T17:41:51.118Z,81.80
2019-02-09T17:44:41.566Z,81.60
2019-02-09T17:47:12.978Z,81.20
2019-02-09T17:49:42.362Z,81.70
2019-02-09T17:52:14.573Z,81.70
2019-02-09T17:54:44.423Z,81.80
2019-02-09T17:57:13.806Z,82.00
2019-02-09T17:59:43.193Z,82.20
2019-02-09T18:02:15.147Z,82.50
2019-02-09T18:04:48.580Z,82.80
2019-02-09T18:07:15.694Z,83.20
2019-02-09T18:09:45.373Z,83.50
2019-02-09T18:12:15.082Z,83.70
2019-02-09T18:14:48.657Z,83.80
2019-02-09T18:17:18.139Z,84.40
2019-02-09T18:19:48.227Z,86.40
2019-02-09T18:22:17.689Z,86.10
2019-02-09T18:24:47.186Z,86.20
2019-02-09T18:27:16.644Z,86.70
2019-02-09T18:29:46.023Z,87.00
2019-02-09T18:32:15.407Z,87.10
2019-02-09T18:34:55.977Z,87.40
2019-02-09T18:37:24.843Z,88.40
2019-02-09T18:39:54.237Z,88.70
2019-02-09T18:42:23.796Z,88.60
2019-02-09T18:44:53.195Z,88.80
2019-02-09T18:47:22.786Z,89.20
2019-02-09T18:49:53.588Z,89.60
2019-02-09T18:52:23.932Z,89.70
2019-02-09T18:54:57.233Z,90.00
2019-02-09T18:57:28.882Z,90.20
2019-02-09T18:59:58.361Z,90.30
2019-02-09T19:02:27.869Z,90.40
2019-02-09T19:05:04.136Z,90.30
2019-02-09T19:07:28.650Z,90.30
2019-02-09T19:09:59.488Z,90.40
2019-02-09T19:12:28.842Z,90.40
2019-02-09T19:15:00.378Z,90.40
2019-02-09T19:17:29.786Z,90.40
2019-02-09T19:20:17.084Z,90.40
2019-02-09T19:22:46.537Z,90.50
2019-02-09T19:25:20.095Z,90.50
2019-02-09T19:27:56.535Z,90.40
2019-02-09T19:30:28.465Z,90.40
2019-02-09T19:32:57.954Z,90.30
2019-02-09T19:35:27.407Z,90.20
2019-02-09T19:37:57.034Z,90.10
2019-02-09T19:40:28.035Z,90.00
2019-02-09T19:42:57.405Z,90.00
2019-02-09T19:45:35.903Z,89.60
2019-02-09T19:48:11.511Z,89.80
2019-02-09T19:50:42.185Z,89.50
2019-02-09T19:53:11.629Z,89.10
2019-02-09T19:55:41.108Z,88.70
2019-02-09T19:58:10.427Z,88.00
2019-02-09T20:00:44.867Z,88.70
2019-02-09T20:03:16.495Z,88.30
2019-02-09T20:05:45.969Z,88.10
2019-02-09T20:08:15.906Z,88.00
2019-02-09T20:10:46.143Z,88.00
2019-02-09T20:13:16.115Z,87.90
2019-02-09T20:15:46.082Z,87.80
2019-02-09T20:18:15.837Z,87.70
2019-02-09T20:20:49.609Z,87.50
2019-02-09T20:23:21.354Z,87.50
2019-02-09T20:25:50.795Z,87.50
2019-02-09T20:28:20.813Z,87.60
2019-02-09T20:30:50.240Z,87.50
2019-02-09T20:33:19.685Z,87.20
2019-02-09T20:35:49.187Z,87.30
2019-02-09T20:38:18.899Z,87.30
2019-02-09T20:40:58.553Z,87.40
2019-02-09T20:43:28.220Z,87.50
2019-02-09T20:45:57.644Z,87.40
2019-02-09T20:48:28.815Z,87.40
2019-02-09T20:50:58.472Z,87.40
2019-02-09T20:53:27.866Z,88.10
2019-02-09T20:55:58.101Z,87.40
2019-02-09T20:58:28.780Z,87.50
2019-02-09T21:00:58.123Z,87.60
2019-02-09T21:03:29.227Z,87.50
2019-02-09T21:05:58.595Z,87.40
2019-02-09T21:08:28.032Z,87.40
2019-02-09T21:10:57.443Z,87.50
2019-02-09T21:13:26.976Z,87.60
2019-02-09T21:15:56.349Z,87.50
2019-02-09T21:18:26.002Z,87.40
2019-02-09T21:20:57.188Z,87.50
2019-02-09T21:23:26.555Z,87.30
2019-02-09T21:25:58.215Z,87.50
2019-02-09T21:28:27.707Z,87.50
2019-02-09T21:30:58.663Z,87.40
2019-02-09T21:33:28.113Z,87.50
2019-02-09T21:35:57.492Z,87.60
2019-02-09T21:38:26.891Z,87.50
2019-02-09T21:41:12.256Z,87.60
2019-02-09T21:43:42.842Z,87.60
2019-02-09T21:46:12.337Z,87.70
2019-02-09T21:48:42.246Z,87.80
2019-02-09T21:51:12.340Z,87.90
2019-02-09T21:53:41.787Z,88.10
2019-02-09T21:56:12.843Z,88.00
2019-02-09T21:58:42.179Z,88.10
2019-02-09T22:01:13.159Z,88.20
2019-02-09T22:03:42.544Z,88.30
2019-02-09T22:06:11.995Z,88.40
2019-02-09T22:08:41.384Z,88.60
2019-02-09T22:11:10.779Z,88.70
2019-02-09T22:13:40.167Z,88.80
2019-02-09T22:16:10.190Z,88.90
2019-02-09T22:18:39.610Z,88.90
2019-02-09T22:21:09.077Z,89.10
2019-02-09T22:23:38.941Z,89.10
2019-02-09T22:26:13.112Z,89.10
2019-02-09T22:28:39.433Z,89.20
2019-02-09T22:31:09.430Z,89.10
2019-02-09T22:33:38.966Z,89.10
2019-02-09T22:36:08.351Z,89.10
2019-02-09T22:38:37.751Z,89.10
2019-02-09T22:41:07.485Z,89.10
2019-02-09T22:43:37.104Z,89.20
2019-02-09T22:46:06.572Z,89.10
2019-02-09T22:48:36.041Z,89.10
2019-02-09T22:51:09.573Z,89.30
2019-02-09T22:53:38.977Z,89.20
2019-02-09T22:56:08.711Z,89.10
2019-02-09T22:58:38.171Z,89.20
2019-02-09T23:01:14.755Z,89.10
2019-02-09T23:03:51.719Z,89.00
2019-02-09T23:06:52.755Z,89.10
2019-02-09T23:09:22.997Z,89.10
2019-02-09T23:11:52.666Z,89.00
2019-02-09T23:14:22.033Z,89.10
2019-02-09T23:16:53.602Z,89.20
2019-02-09T23:19:23.446Z,89.20
2019-02-09T23:21:53.185Z,89.40
2019-02-09T23:24:22.682Z,89.30
2019-02-09T23:26:52.083Z,89.40
2019-02-09T23:29:25.125Z,89.40
2019-02-09T23:31:54.887Z,89.40
2019-02-09T23:34:46.693Z,89.40
2019-02-09T23:37:16.097Z,89.30
2019-02-09T23:39:46.828Z,89.30
2019-02-09T23:42:16.258Z,89.30
2019-02-09T23:44:45.618Z,89.30
2019-02-09T23:47:15.021Z,89.10
2019-02-09T23:49:44.461Z,89.10
2019-02-09T23:52:14.014Z,89.20
2019-02-09T23:54:43.468Z,89.20
2019-02-09T23:57:12.901Z,89.10
2019-02-09T23:59:42.235Z,89.10
